createdAt,value
2019-01-10T00:00:52.639Z,101.17
2019-01-10T00:03:21.987Z,101.97
2019-01-10T00:05:51.423Z,103.13
2019-01-10T00:08:20.839Z,103.60
2019-01-10T00:10:50.183Z,100.97
2019-01-10T00:13:19.594Z,102.83
2019-01-10T00:15:48.959Z,103.70
2019-01-10T00:18:18.273Z,102.67
2019-01-10T00:20:47.698Z,102.77
2019-01-10T00:23:17.083Z,103.17
2019-01-10T00:25:46.482Z,103.93
2019-01-10T00:28:15.906Z,102.90
2019-01-10T00:30:45.225Z,103.87
2019-01-10T00:33:14.622Z,100.37
2019-01-10T00:35:44.134Z,110.13
2019-01-10T00:38:13.528Z,107.83
2019-01-10T00:40:42.926Z,107.00
2019-01-10T00:43:12.335Z,112.10
2019-01-10T00:45:41.773Z,111.30
2019-01-10T00:48:11.062Z,109.57
2019-01-10T00:50:41.479Z,115.00
2019-01-10T00:53:10.821Z,109.07
2019-01-10T00:55:40.210Z,109.20
2019-01-10T00:58:09.509Z,105.57
2019-01-10T01:00:38.795Z,104.83
2019-01-10T01:03:08.099Z,109.30
2019-01-10T01:05:37.439Z,106.47
2019-01-10T01:08:06.780Z,107.10
2019-01-10T01:10:36.251Z,111.17
2019-01-10T01:13:05.646Z,108.80
2019-01-10T01:15:34.953Z,108.50
2019-01-10T01:18:04.643Z,103.63
2019-01-10T01:20:34.176Z,102.73
2019-01-10T01:23:03.559Z,104.60
2019-01-10T01:25:32.886Z,101.67
2019-01-10T01:28:02.223Z,103.43
2019-01-10T01:30:31.742Z,103.17
2019-01-10T01:33:01.102Z,102.80
2019-01-10T01:35:30.413Z,102.23
2019-01-10T01:37:59.739Z,101.00
2019-01-10T01:40:29.287Z,101.87
2019-01-10T01:43:07.140Z,97.80
2019-01-10T01:45:30.039Z,97.60
2019-01-10T01:47:59.397Z,99.87
2019-01-10T01:50:28.736Z,99.87
2019-01-10T01:52:58.099Z,91.27
2019-01-10T01:55:27.503Z,88.33
2019-01-10T01:57:56.841Z,93.27
2019-01-10T02:00:26.352Z,90.20
2019-01-10T02:02:55.667Z,88.77
2019-01-10T02:05:25.242Z,83.80
2019-01-10T02:07:54.509Z,82.90
2019-01-10T02:10:26.233Z,85.77
2019-01-10T02:12:55.631Z,86.77
2019-01-10T02:15:24.931Z,86.67
2019-01-10T02:17:54.231Z,88.40
2019-01-10T02:20:23.766Z,91.27
2019-01-10T02:22:53.184Z,94.10
2019-01-10T02:25:22.545Z,92.73
2019-01-10T02:27:52.098Z,93.57
2019-01-10T02:30:24.197Z,97.60
2019-01-10T02:32:53.915Z,94.43
2019-01-10T02:35:23.421Z,96.27
2019-01-10T02:37:52.898Z,98.23
2019-01-10T02:40:22.392Z,99.10
2019-01-10T02:42:51.713Z,96.10
2019-01-10T02:45:21.031Z,98.90
2019-01-10T02:47:50.476Z,90.07
2019-01-10T02:50:22.006Z,89.53
2019-01-10T02:52:51.338Z,82.23
2019-01-10T02:55:20.845Z,80.13
2019-01-10T02:57:50.260Z,78.07
2019-01-10T03:00:24.548Z,75.57
2019-01-10T03:02:54.053Z,71.63
2019-01-10T03:05:23.658Z,75.37
2019-01-10T03:07:53.095Z,75.07
2019-01-10T03:10:25.128Z,75.47
2019-01-10T03:12:55.005Z,76.67
2019-01-10T03:15:24.395Z,76.53
2019-01-10T03:17:53.905Z,86.63
2019-01-10T03:20:23.855Z,98.47
2019-01-10T03:22:53.370Z,98.50
2019-01-10T03:25:22.690Z,108.83
2019-01-10T03:27:52.067Z,105.50
2019-01-10T03:30:21.697Z,104.13
2019-01-10T03:32:51.055Z,115.47
2019-01-10T03:35:20.318Z,118.33
2019-01-10T03:37:49.868Z,116.67
2019-01-10T03:40:21.390Z,112.53
2019-01-10T03:42:50.809Z,116.80
2019-01-10T03:45:22.240Z,113.47
2019-01-10T03:47:51.627Z,113.43
2019-01-10T03:50:21.464Z,112.27
2019-01-10T03:52:50.746Z,115.70
2019-01-10T03:55:20.016Z,112.10
2019-01-10T03:57:49.337Z,119.87
2019-01-10T04:00:24.065Z,117.07
2019-01-10T04:02:53.695Z,119.33
2019-01-10T04:05:23.094Z,120.87
2019-01-10T04:07:52.454Z,126.43
2019-01-10T04:10:21.807Z,124.23
2019-01-10T04:12:51.246Z,129.93
2019-01-10T04:15:20.654Z,121.97
2019-01-10T04:17:49.907Z,117.37
2019-01-10T04:20:19.698Z,120.47
2019-01-10T04:22:49.078Z,121.70
2019-01-10T04:25:18.440Z,120.83
2019-01-10T04:27:47.743Z,113.90
2019-01-10T04:30:21.345Z,115.77
2019-01-10T04:32:50.802Z,118.10
2019-01-10T04:35:20.144Z,116.13
2019-01-10T04:37:49.448Z,117.00
2019-01-10T04:40:22.552Z,117.47
2019-01-10T04:42:51.880Z,119.00
2019-01-10T04:45:21.200Z,117.03
2019-01-10T04:47:50.601Z,119.10
2019-01-10T04:50:19.840Z,120.07
2019-01-10T04:52:49.194Z,120.00
2019-01-10T04:55:18.512Z,96.77
2019-01-10T04:57:47.884Z,83.43
2019-01-10T05:00:20.541Z,64.13
2019-01-10T05:02:49.931Z,60.30
2019-01-10T05:05:19.482Z,57.83
2019-01-10T05:07:48.772Z,52.37
2019-01-10T05:10:18.191Z,55.60
2019-01-10T05:12:47.627Z,63.17
2019-01-10T05:15:17.209Z,59.47
2019-01-10T05:17:46.555Z,66.23
2019-01-10T05:20:17.941Z,57.53
2019-01-10T05:22:47.436Z,54.13
2019-01-10T05:25:16.922Z,54.53
2019-01-10T05:27:46.284Z,68.67
2019-01-10T05:30:18.796Z,63.80
2019-01-10T05:32:48.291Z,60.90
2019-01-10T05:35:17.698Z,61.20
2019-01-10T05:37:47.259Z,59.70
2019-01-10T05:40:16.581Z,59.57
2019-01-10T05:42:45.953Z,58.63
2019-01-10T05:45:16.169Z,58.63
2019-01-10T05:47:45.742Z,58.13
2019-01-10T05:50:17.833Z,58.30
2019-01-10T05:52:47.741Z,63.77
2019-01-10T05:55:19.582Z,79.20
2019-01-10T05:57:48.943Z,65.87
2019-01-10T06:00:23.931Z,66.83
2019-01-10T06:02:53.475Z,56.70
2019-01-10T06:05:23.221Z,55.80
2019-01-10T06:07:52.883Z,52.23
2019-01-10T06:10:24.795Z,53.67
2019-01-10T06:12:54.202Z,55.07
2019-01-10T06:15:24.139Z,52.40
2019-01-10T06:17:53.649Z,52.47
2019-01-10T06:20:24.123Z,52.87
2019-01-10T06:22:54.416Z,49.90
2019-01-10T06:25:24.069Z,53.17
2019-01-10T06:27:53.651Z,51.47
2019-01-10T06:30:24.405Z,52.07
2019-01-10T06:32:53.820Z,52.57
2019-01-10T06:35:23.356Z,53.60
2019-01-10T06:37:52.939Z,56.83
2019-01-10T06:40:23.007Z,55.20
2019-01-10T06:42:52.520Z,63.30
2019-01-10T06:45:22.081Z,68.47
2019-01-10T06:47:51.600Z,54.53
2019-01-10T06:50:21.178Z,49.83
2019-01-10T06:52:50.766Z,54.60
2019-01-10T06:55:20.234Z,56.00
2019-01-10T06:57:49.668Z,50.10
2019-01-10T07:00:26.096Z,49.33
2019-01-10T07:02:55.725Z,51.97
2019-01-10T07:05:25.250Z,54.33
2019-01-10T07:07:56.710Z,62.90
2019-01-10T07:10:30.495Z,62.27
2019-01-10T07:13:00.335Z,57.87
2019-01-10T07:15:30.069Z,62.23
2019-01-10T07:17:59.509Z,52.63
2019-01-10T07:20:28.957Z,52.77
2019-01-10T07:22:58.444Z,55.70
2019-01-10T07:25:27.774Z,52.30
2019-01-10T07:27:57.415Z,52.23
2019-01-10T07:30:35.722Z,50.10
2019-01-10T07:32:59.954Z,50.80
2019-01-10T07:35:29.700Z,50.53
2019-01-10T07:37:59.330Z,50.10
2019-01-10T07:40:29.030Z,56.33
2019-01-10T07:42:58.680Z,51.73
2019-01-10T07:45:28.999Z,49.70
2019-01-10T07:47:58.355Z,49.70
2019-01-10T07:50:35.632Z,49.87
2019-01-10T07:53:09.756Z,53.93
2019-01-10T07:55:40.108Z,56.13
2019-01-10T07:58:09.853Z,50.67
2019-01-10T08:00:39.421Z,49.80
2019-01-10T08:03:09.047Z,49.23
2019-01-10T08:05:38.535Z,51.90
2019-01-10T08:08:09.451Z,49.93
2019-01-10T08:10:39.240Z,50.43
2019-01-10T08:13:09.302Z,50.23
2019-01-10T08:15:38.951Z,49.90
2019-01-10T08:18:08.422Z,51.03
2019-01-10T08:20:37.889Z,51.60
2019-01-10T08:23:07.326Z,51.20
2019-01-10T08:25:36.644Z,52.57
2019-01-10T08:28:06.151Z,51.40
2019-01-10T08:30:35.542Z,52.10
2019-01-10T08:33:05.634Z,52.10
2019-01-10T08:35:35.088Z,47.93
2019-01-10T08:38:04.580Z,45.20
2019-01-10T08:40:33.906Z,43.60
2019-01-10T08:43:03.362Z,43.30
2019-01-10T08:45:32.771Z,46.00
2019-01-10T08:48:02.067Z,47.60
2019-01-10T08:50:31.636Z,46.23
2019-01-10T08:53:00.939Z,46.33
2019-01-10T08:55:30.308Z,47.83
2019-01-10T08:57:59.640Z,47.23
2019-01-10T09:00:29.064Z,46.83
2019-01-10T09:02:58.461Z,45.63
2019-01-10T09:05:27.919Z,48.43
2019-01-10T09:07:57.532Z,60.37
2019-01-10T09:10:34.806Z,79.60
2019-01-10T09:13:04.565Z,58.10
2019-01-10T09:15:34.923Z,50.93
2019-01-10T09:18:05.170Z,55.40
2019-01-10T09:20:34.547Z,53.63
2019-01-10T09:23:03.981Z,66.33
2019-01-10T09:25:33.356Z,51.43
2019-01-10T09:28:02.662Z,51.83
2019-01-10T09:30:32.065Z,52.07
2019-01-10T09:33:01.629Z,54.83
2019-01-10T09:35:31.246Z,56.27
2019-01-10T09:38:00.771Z,53.67
2019-01-10T09:40:30.127Z,54.37
2019-01-10T09:42:59.917Z,53.87
2019-01-10T09:45:29.491Z,53.67
2019-01-10T09:47:59.026Z,59.40
2019-01-10T09:50:28.376Z,61.80
2019-01-10T09:52:57.728Z,60.37
2019-01-10T09:55:26.945Z,62.00
2019-01-10T09:57:56.335Z,65.13
2019-01-10T10:00:30.618Z,61.00
2019-01-10T10:03:00.362Z,60.97
2019-01-10T10:05:29.865Z,62.10
2019-01-10T10:07:59.163Z,60.90
2019-01-10T10:10:28.504Z,60.67
2019-01-10T10:12:57.823Z,58.73
2019-01-10T10:15:27.115Z,57.40
2019-01-10T10:17:56.422Z,61.33
2019-01-10T10:20:26.583Z,60.67
2019-01-10T10:22:56.128Z,61.03
2019-01-10T10:25:26.114Z,63.47
2019-01-10T10:27:55.922Z,66.30
2019-01-10T10:30:25.464Z,67.83
2019-01-10T10:32:55.011Z,68.23
2019-01-10T10:35:25.617Z,66.23
2019-01-10T10:37:54.992Z,65.60
2019-01-10T10:40:24.746Z,69.60
2019-01-10T10:42:54.803Z,67.93
2019-01-10T10:45:24.542Z,64.10
2019-01-10T10:47:54.046Z,63.57
2019-01-10T10:50:25.992Z,67.00
2019-01-10T10:52:55.571Z,63.07
2019-01-10T10:55:25.110Z,63.87
2019-01-10T10:57:54.797Z,63.03
2019-01-10T11:00:27.093Z,61.77
2019-01-10T11:02:56.856Z,59.87
2019-01-10T11:05:26.108Z,61.37
2019-01-10T11:07:55.682Z,61.80
2019-01-10T11:10:25.207Z,66.53
2019-01-10T11:12:54.628Z,60.13
2019-01-10T11:15:24.049Z,60.00
2019-01-10T11:17:53.672Z,55.87
2019-01-10T11:20:24.517Z,54.57
2019-01-10T11:22:54.661Z,55.23
2019-01-10T11:25:28.652Z,54.77
2019-01-10T11:27:58.800Z,48.27
2019-01-10T11:30:28.145Z,49.07
2019-01-10T11:32:57.538Z,48.97
2019-01-10T11:35:26.915Z,51.57
2019-01-10T11:37:56.571Z,50.43
2019-01-10T11:40:26.110Z,47.97
2019-01-10T11:42:55.579Z,49.57
2019-01-10T11:45:26.871Z,50.13
2019-01-10T11:47:56.335Z,49.33
2019-01-10T11:50:26.020Z,51.37
2019-01-10T11:52:55.812Z,54.87
2019-01-10T11:55:25.356Z,51.60
2019-01-10T11:57:54.894Z,56.63
2019-01-10T12:00:35.035Z,55.73
2019-01-10T12:03:08.471Z,57.10
2019-01-10T12:05:47.628Z,55.73
2019-01-10T12:08:11.756Z,56.13
2019-01-10T12:10:41.353Z,57.37
2019-01-10T12:13:10.751Z,59.83
2019-01-10T12:15:41.330Z,57.43
2019-01-10T12:18:10.806Z,57.67
2019-01-10T12:20:40.412Z,56.13
2019-01-10T12:23:09.804Z,57.60
2019-01-10T12:25:39.335Z,57.40
2019-01-10T12:28:09.528Z,56.50
2019-01-10T12:30:39.113Z,57.70
2019-01-10T12:33:08.505Z,57.67
2019-01-10T12:35:38.164Z,58.43
2019-01-10T12:38:07.695Z,58.87
2019-01-10T12:40:37.119Z,54.77
2019-01-10T12:43:06.838Z,61.57
2019-01-10T12:45:36.494Z,53.37
2019-01-10T12:48:05.775Z,52.80
2019-01-10T12:50:35.529Z,51.93
2019-01-10T12:53:07.558Z,50.47
2019-01-10T12:55:37.199Z,50.33
2019-01-10T12:58:07.512Z,53.23
2019-01-10T13:00:37.202Z,54.30
2019-01-10T13:03:06.841Z,58.33
2019-01-10T13:05:36.567Z,53.53
2019-01-10T13:08:06.063Z,53.53
2019-01-10T13:10:35.611Z,54.73
2019-01-10T13:13:05.030Z,56.50
2019-01-10T13:15:34.767Z,53.17
2019-01-10T13:18:04.160Z,54.90
2019-01-10T13:20:33.706Z,55.57
2019-01-10T13:23:03.392Z,53.30
2019-01-10T13:25:32.957Z,53.97
2019-01-10T13:28:02.408Z,52.73
2019-01-10T13:30:31.799Z,52.50
2019-01-10T13:33:01.476Z,51.33
2019-01-10T13:35:34.313Z,51.80
2019-01-10T13:38:03.921Z,53.57
2019-01-10T13:40:33.251Z,54.83
2019-01-10T13:43:02.963Z,57.83
2019-01-10T13:45:32.643Z,55.17
2019-01-10T13:48:02.124Z,57.27
2019-01-10T13:50:32.500Z,54.27
2019-01-10T13:53:01.885Z,54.70
2019-01-10T13:55:31.579Z,52.60
2019-01-10T13:58:01.180Z,52.20
2019-01-10T14:00:35.560Z,53.97
2019-01-10T14:03:03.016Z,52.20
2019-01-10T14:05:32.549Z,53.23
2019-01-10T14:08:01.961Z,55.47
2019-01-10T14:10:31.796Z,56.53
2019-01-10T14:13:01.181Z,56.43
2019-01-10T14:15:33.384Z,60.40
2019-01-10T14:18:03.281Z,62.90
2019-01-10T14:20:32.940Z,58.67
2019-01-10T14:23:02.422Z,61.57
2019-01-10T14:25:31.998Z,58.30
2019-01-10T14:28:01.649Z,56.20
2019-01-10T14:30:37.622Z,61.77
2019-01-10T14:33:08.757Z,64.27
2019-01-10T14:35:38.303Z,66.27
2019-01-10T14:38:07.929Z,66.97
2019-01-10T14:40:37.612Z,66.30
2019-01-10T14:43:07.127Z,60.93
2019-01-10T14:45:38.406Z,64.67
2019-01-10T14:48:07.822Z,64.70
2019-01-10T14:50:37.560Z,68.33
2019-01-10T14:53:07.319Z,68.20
2019-01-10T14:55:36.805Z,68.50
2019-01-10T14:58:06.502Z,64.77
2019-01-10T15:00:36.118Z,80.80
2019-01-10T15:03:05.671Z,108.87
2019-01-10T15:05:35.167Z,89.87
2019-01-10T15:08:05.129Z,95.47
2019-01-10T15:10:36.046Z,74.73
2019-01-10T15:13:05.857Z,93.67
2019-01-10T15:15:35.228Z,99.03
2019-01-10T15:18:04.700Z,110.53
2019-01-10T15:20:34.741Z,114.27
2019-01-10T15:23:04.148Z,103.10
2019-01-10T15:25:33.709Z,106.27
2019-01-10T15:28:03.078Z,98.23
2019-01-10T15:30:32.802Z,109.93
2019-01-10T15:33:02.625Z,110.80
2019-01-10T15:35:32.262Z,88.43
2019-01-10T15:38:01.785Z,89.13
2019-01-10T15:40:33.090Z,79.53
2019-01-10T15:43:03.451Z,77.37
2019-01-10T15:45:32.985Z,73.20
2019-01-10T15:48:02.328Z,73.17
2019-01-10T15:50:31.721Z,72.93
2019-01-10T15:53:01.173Z,78.37
2019-01-10T15:55:30.589Z,85.00
2019-01-10T15:58:00.014Z,90.73
2019-01-10T16:00:29.313Z,91.17
2019-01-10T16:02:58.750Z,78.27
2019-01-10T16:05:28.110Z,75.03
2019-01-10T16:07:57.414Z,74.73
2019-01-10T16:10:27.216Z,76.60
2019-01-10T16:12:56.624Z,77.13
2019-01-10T16:15:26.559Z,72.37
2019-01-10T16:17:56.015Z,73.53
2019-01-10T16:20:25.829Z,74.43
2019-01-10T16:22:55.271Z,71.17
2019-01-10T16:25:24.993Z,71.67
2019-01-10T16:27:54.415Z,72.63
2019-01-10T16:30:29.024Z,74.00
2019-01-10T16:32:58.618Z,73.17
2019-01-10T16:35:28.228Z,71.47
2019-01-10T16:37:57.709Z,68.53
2019-01-10T16:40:27.343Z,72.40
2019-01-10T16:42:56.757Z,67.37
2019-01-10T16:45:30.944Z,65.37
2019-01-10T16:48:00.295Z,64.33
2019-01-10T16:50:29.822Z,65.80
2019-01-10T16:52:59.081Z,60.63
2019-01-10T16:55:28.614Z,59.03
2019-01-10T16:57:58.035Z,59.77
2019-01-10T17:00:32.601Z,63.30
2019-01-10T17:03:02.386Z,59.70
2019-01-10T17:05:32.353Z,62.77
2019-01-10T17:08:01.654Z,62.50
2019-01-10T17:10:31.086Z,52.90
2019-01-10T17:13:00.472Z,53.90
2019-01-10T17:15:30.162Z,53.13
2019-01-10T17:17:59.623Z,54.93
2019-01-10T17:20:29.231Z,56.27
2019-01-10T17:22:58.837Z,58.07
2019-01-10T17:25:29.286Z,56.20
2019-01-10T17:27:58.731Z,54.73
2019-01-10T17:30:32.055Z,52.30
2019-01-10T17:33:02.496Z,53.13
2019-01-10T17:35:33.222Z,48.80
2019-01-10T17:38:03.307Z,51.30
2019-01-10T17:40:32.922Z,53.80
2019-01-10T17:43:03.403Z,51.33
2019-01-10T17:45:35.021Z,53.03
2019-01-10T17:48:06.360Z,53.93
2019-01-10T17:50:35.781Z,55.33
2019-01-10T17:53:05.159Z,48.73
2019-01-10T17:55:34.517Z,51.03
2019-01-10T17:58:05.083Z,46.13
2019-01-10T18:00:34.528Z,47.97
2019-01-10T18:03:04.207Z,47.53
2019-01-10T18:05:33.656Z,47.17
2019-01-10T18:08:03.294Z,50.40
2019-01-10T18:10:32.921Z,50.30
2019-01-10T18:13:02.720Z,52.67
2019-01-10T18:15:32.582Z,52.30
2019-01-10T18:18:02.146Z,53.43
2019-01-10T18:20:37.234Z,58.40
2019-01-10T18:23:07.000Z,58.33
2019-01-10T18:25:36.649Z,60.47
2019-01-10T18:28:06.555Z,68.57
2019-01-10T18:30:35.877Z,56.03
2019-01-10T18:33:05.380Z,53.93
2019-01-10T18:35:34.951Z,54.33
2019-01-10T18:38:04.853Z,52.40
2019-01-10T18:40:34.267Z,64.60
2019-01-10T18:43:03.864Z,61.50
2019-01-10T18:45:34.484Z,58.73
2019-01-10T18:48:04.068Z,55.60
2019-01-10T18:50:33.568Z,53.13
2019-01-10T18:53:05.742Z,51.00
2019-01-10T18:55:35.191Z,52.47
2019-01-10T18:58:04.948Z,55.80
2019-01-10T19:00:34.407Z,53.40
2019-01-10T19:03:04.058Z,63.37
2019-01-10T19:05:33.463Z,66.07
2019-01-10T19:08:02.845Z,67.40
2019-01-10T19:10:32.461Z,60.33
2019-01-10T19:13:01.972Z,75.80
2019-01-10T19:15:31.620Z,70.97
2019-01-10T19:18:03.551Z,62.47
2019-01-10T19:20:32.064Z,57.70
2019-01-10T19:23:02.723Z,54.73
2019-01-10T19:25:32.394Z,57.97
2019-01-10T19:28:01.859Z,64.57
2019-01-10T19:30:36.046Z,64.03
2019-01-10T19:33:06.003Z,61.83
2019-01-10T19:35:35.551Z,59.63
2019-01-10T19:38:05.584Z,61.23
2019-01-10T19:40:35.115Z,59.37
2019-01-10T19:43:05.034Z,60.30
2019-01-10T19:45:34.598Z,66.73
2019-01-10T19:48:09.668Z,64.27
2019-01-10T19:50:35.252Z,62.07
2019-01-10T19:53:04.944Z,58.60
2019-01-10T19:55:34.705Z,55.00
2019-01-10T19:58:04.293Z,55.73
2019-01-10T20:00:36.585Z,69.03
2019-01-10T20:03:06.036Z,65.50
2019-01-10T20:05:35.363Z,64.30
2019-01-10T20:08:04.994Z,58.67
2019-01-10T20:10:34.687Z,57.90
2019-01-10T20:13:04.003Z,62.40
2019-01-10T20:15:33.356Z,62.50
2019-01-10T20:18:02.991Z,64.20
2019-01-10T20:20:35.671Z,68.20
2019-01-10T20:23:07.049Z,65.17
2019-01-10T20:25:37.727Z,63.00
2019-01-10T20:28:07.591Z,68.63
2019-01-10T20:30:37.116Z,67.07
2019-01-10T20:33:06.780Z,70.73
2019-01-10T20:35:36.328Z,68.90
2019-01-10T20:38:06.274Z,66.87
2019-01-10T20:40:35.851Z,76.73
2019-01-10T20:43:05.558Z,68.93
2019-01-10T20:45:35.326Z,70.13
2019-01-10T20:48:04.777Z,63.53
2019-01-10T20:50:34.259Z,61.13
2019-01-10T20:53:03.942Z,63.97
2019-01-10T20:55:33.411Z,63.40
2019-01-10T20:58:02.856Z,63.17
2019-01-10T21:00:32.271Z,61.40
2019-01-10T21:03:01.710Z,64.33
2019-01-10T21:05:31.302Z,62.97
2019-01-10T21:08:00.921Z,59.27
2019-01-10T21:10:30.669Z,57.83
2019-01-10T21:13:01.566Z,58.87
2019-01-10T21:15:31.910Z,61.20
2019-01-10T21:18:01.540Z,63.13
2019-01-10T21:20:31.732Z,59.40
2019-01-10T21:23:01.083Z,62.13
2019-01-10T21:25:30.490Z,63.40
2019-01-10T21:28:00.892Z,63.27
2019-01-10T21:30:30.187Z,62.40
2019-01-10T21:32:59.523Z,64.43
2019-01-10T21:35:28.954Z,64.50
2019-01-10T21:38:00.746Z,61.67
2019-01-10T21:40:32.051Z,62.97
2019-01-10T21:43:01.416Z,62.37
2019-01-10T21:45:30.766Z,61.93
2019-01-10T21:48:00.122Z,61.27
2019-01-10T21:50:29.480Z,61.80
2019-01-10T21:52:58.882Z,66.77
2019-01-10T21:55:28.241Z,62.53
2019-01-10T21:57:57.702Z,60.77
2019-01-10T22:00:29.840Z,58.77
2019-01-10T22:03:00.544Z,59.27
2019-01-10T22:05:30.077Z,60.07
2019-01-10T22:07:59.574Z,60.57
2019-01-10T22:10:29.323Z,62.30
2019-01-10T22:13:01.387Z,56.20
2019-01-10T22:15:30.977Z,57.90
2019-01-10T22:18:00.575Z,59.13
2019-01-10T22:20:30.047Z,56.77
2019-01-10T22:22:59.456Z,55.40
2019-01-10T22:25:28.795Z,59.10
2019-01-10T22:27:58.277Z,57.43
2019-01-10T22:30:28.076Z,58.17
2019-01-10T22:32:57.584Z,58.33
2019-01-10T22:35:27.063Z,58.73
2019-01-10T22:37:56.762Z,57.87
2019-01-10T22:40:26.388Z,58.00
2019-01-10T22:42:56.007Z,61.07
2019-01-10T22:45:25.564Z,60.73
2019-01-10T22:47:55.008Z,60.77
2019-01-10T22:50:24.423Z,64.10
2019-01-10T22:52:54.437Z,62.90
2019-01-10T22:55:23.810Z,59.90
2019-01-10T22:57:53.365Z,64.43
2019-01-10T23:01:08.951Z,62.33
2019-01-10T23:03:40.655Z,60.40
2019-01-10T23:06:10.265Z,62.40
2019-01-10T23:08:46.576Z,64.03
2019-01-10T23:11:26.274Z,64.27
2019-01-10T23:14:00.504Z,63.07
2019-01-10T23:16:31.240Z,65.60
2019-01-10T23:19:01.335Z,67.20
2019-01-10T23:21:35.282Z,64.37
2019-01-10T23:24:07.898Z,62.43
2019-01-10T23:26:37.208Z,61.60
2019-01-10T23:29:07.749Z,63.37
2019-01-10T23:31:37.126Z,63.00
2019-01-10T23:34:09.295Z,68.73
2019-01-10T23:36:38.748Z,66.40
2019-01-10T23:39:19.531Z,61.87
2019-01-10T23:41:50.118Z,56.97
2019-01-10T23:44:19.632Z,59.23
2019-01-10T23:46:49.203Z,86.63
2019-01-10T23:49:18.525Z,61.20
2019-01-10T23:51:48.338Z,65.90
2019-01-10T23:54:18.324Z,60.37
2019-01-10T23:56:48.112Z,57.77
2019-01-10T23:59:17.351Z,54.73
